createdAt,value
2023-05-16T00:00:40.863Z,-24254.44
2023-05-16T00:03:08.082Z,-24253.85
2023-05-16T00:08:13.163Z,-24252.86
2023-05-16T00:10:40.197Z,-24251.50
2023-05-16T00:13:07.385Z,-24250.70
2023-05-16T00:15:34.810Z,-24249.79
2023-05-16T00:18:01.860Z,-24249.17
2023-05-16T00:20:29.276Z,-24248.55
2023-05-16T00:22:56.582Z,-24247.75
2023-05-16T00:25:23.570Z,-24246.67
2023-05-16T00:27:50.514Z,-24245.73
2023-05-16T00:30:17.592Z,-24244.78
2023-05-16T00:32:44.851Z,-24243.97
2023-05-16T00:35:12.570Z,-24243.07
2023-05-16T00:37:39.712Z,-24242.24
2023-05-16T00:40:07.577Z,-24241.28
2023-05-16T00:42:37.163Z,-24241.16
2023-05-16T00:45:04.897Z,-24241.00
2023-05-16T00:47:32.380Z,-24240.56
2023-05-16T00:49:59.630Z,-24239.70
2023-05-16T00:52:26.721Z,-24238.61
2023-05-16T00:54:53.716Z,-24238.03
2023-05-16T00:57:20.875Z,-24237.09
2023-05-16T00:59:47.888Z,-24236.20
2023-05-16T01:02:14.946Z,-24235.40
2023-05-16T01:04:43.035Z,-24234.40
2023-05-16T01:07:10.164Z,-24233.22
2023-05-16T01:09:37.455Z,-24232.17
2023-05-16T01:12:49.446Z,-24231.74
2023-05-16T01:15:25.012Z,-24231.46
2023-05-16T01:18:04.659Z,-24230.78
2023-05-16T01:20:52.874Z,-24229.85
2023-05-16T01:23:55.003Z,-24228.70
2023-05-16T01:26:26.716Z,-24227.90
2023-05-16T01:28:53.898Z,-24227.31
2023-05-16T01:31:21.777Z,-24226.32
2023-05-16T01:33:49.002Z,-24225.48
2023-05-16T01:36:53.724Z,-24225.11
2023-05-16T01:39:44.552Z,-24224.74
2023-05-16T01:42:15.197Z,-24224.27
2023-05-16T01:44:45.900Z,-24223.38
2023-05-16T01:47:15.116Z,-24221.92
2023-05-16T01:50:00.418Z,-24221.11
2023-05-16T01:52:38.194Z,-24220.21
2023-05-16T01:55:05.980Z,-24218.67
2023-05-16T01:57:33.170Z,-24217.45
2023-05-16T02:00:00.570Z,-24216.68
2023-05-16T02:02:27.765Z,-24216.08
2023-05-16T02:04:54.748Z,-24215.53
2023-05-16T02:07:21.763Z,-24214.88
2023-05-16T02:09:48.857Z,-24214.01
2023-05-16T02:12:16.393Z,-24212.65
2023-05-16T02:14:43.336Z,-24211.75
2023-05-16T02:17:10.321Z,-24211.06
2023-05-16T02:19:37.280Z,-24210.66
2023-05-16T02:22:04.327Z,-24210.01
2023-05-16T02:24:33.338Z,-24209.23
2023-05-16T02:27:01.902Z,-24208.58
2023-05-16T02:29:29.015Z,-24208.18
2023-05-16T02:31:56.061Z,-24207.35
2023-05-16T02:34:23.092Z,-24206.57
2023-05-16T02:36:50.115Z,-24205.98
2023-05-16T02:39:17.065Z,-24205.42
2023-05-16T02:41:43.996Z,-24205.05
2023-05-16T02:44:11.214Z,-24204.86
2023-05-16T02:46:38.224Z,-24205.21
2023-05-16T02:49:05.817Z,-24205.42
2023-05-16T02:51:32.786Z,-24205.48
2023-05-16T02:54:01.298Z,-24205.98
2023-05-16T02:56:28.343Z,-24206.26
2023-05-16T02:58:55.748Z,-24206.32
2023-05-16T03:01:23.055Z,-24206.57
2023-05-16T03:03:50.240Z,-24206.73
2023-05-16T03:06:17.464Z,-24207.16
2023-05-16T03:08:44.379Z,-24207.25
2023-05-16T03:11:11.426Z,-24207.35
2023-05-16T03:13:41.863Z,-24207.84
2023-05-16T03:16:09.020Z,-24208.52
2023-05-16T03:18:36.078Z,-24208.77
2023-05-16T03:21:04.364Z,-24209.08
2023-05-16T03:23:31.308Z,-24209.55
2023-05-16T03:25:58.332Z,-24210.32
2023-05-16T03:28:25.429Z,-24211.10
2023-05-16T03:30:55.168Z,-24211.66
2023-05-16T03:33:22.230Z,-24211.91
2023-05-16T03:35:49.191Z,-24212.15
2023-05-16T03:38:16.107Z,-24212.52
2023-05-16T03:40:44.318Z,-24212.95
2023-05-16T03:43:11.266Z,-24213.27
2023-05-16T03:45:38.438Z,-24213.36
2023-05-16T03:48:05.601Z,-24213.45
2023-05-16T03:50:32.702Z,-24214.10
2023-05-16T03:52:59.667Z,-24214.91
2023-05-16T03:55:27.089Z,-24215.62
2023-05-16T03:57:54.335Z,-24216.27
2023-05-16T04:00:21.439Z,-24216.83
2023-05-16T04:02:48.636Z,-24216.77
2023-05-16T04:05:15.959Z,-24216.58
2023-05-16T04:07:43.003Z,-24216.36
2023-05-16T04:10:10.651Z,-24216.21
2023-05-16T04:12:37.748Z,-24216.43
2023-05-16T04:15:05.764Z,-24216.52
2023-05-16T04:17:33.189Z,-24216.99
2023-05-16T04:20:01.007Z,-24217.27
2023-05-16T04:22:27.960Z,-24217.11
2023-05-16T04:24:55.252Z,-24217.14
2023-05-16T04:27:22.239Z,-24217.21
2023-05-16T04:29:49.423Z,-24217.33
2023-05-16T04:32:17.501Z,-24217.18
2023-05-16T04:34:46.972Z,-24216.68
2023-05-16T04:37:14.722Z,-24216.24
2023-05-16T04:39:42.851Z,-24215.65
2023-05-16T04:42:10.069Z,-24215.16
2023-05-16T04:44:37.793Z,-24214.72
2023-05-16T04:47:05.302Z,-24214.35
2023-05-16T04:49:32.213Z,-24214.11
2023-05-16T04:51:59.721Z,-24213.86
2023-05-16T04:54:27.227Z,-24213.23
2023-05-16T04:56:54.846Z,-24212.89
2023-05-16T04:59:22.070Z,-24212.37
2023-05-16T05:01:49.145Z,-24212.43
2023-05-16T05:04:17.885Z,-24213.18
2023-05-16T05:06:45.027Z,-24213.98
2023-05-16T05:09:12.082Z,-24214.72
2023-05-16T05:11:39.171Z,-24215.31
2023-05-16T05:14:06.178Z,-24215.62
2023-05-16T05:16:33.438Z,-24215.41
2023-05-16T05:19:00.884Z,-24215.31
2023-05-16T05:21:27.943Z,-24215.22
2023-05-16T05:23:55.072Z,-24215.31
2023-05-16T05:26:22.397Z,-24216.24
2023-05-16T05:29:00.999Z,-24217.92
2023-05-16T05:31:31.322Z,-24219.69
2023-05-16T05:33:58.363Z,-24221.39
2023-05-16T05:36:25.361Z,-24222.63
2023-05-16T05:38:52.397Z,-24223.90
2023-05-16T05:41:19.399Z,-24224.24
2023-05-16T05:43:46.352Z,-24224.18
2023-05-16T05:46:13.478Z,-24224.18
2023-05-16T05:48:40.670Z,-24224.77
2023-05-16T05:51:07.689Z,-24225.30
2023-05-16T05:53:34.814Z,-24225.73
2023-05-16T05:56:01.719Z,-24225.51
2023-05-16T05:58:28.942Z,-24224.83
2023-05-16T06:00:56.159Z,-24223.90
2023-05-16T06:03:23.259Z,-24222.42
2023-05-16T06:05:50.348Z,-24220.59
2023-05-16T06:08:17.294Z,-24218.76
2023-05-16T06:10:44.312Z,-24217.02
2023-05-16T06:13:11.526Z,-24215.31
2023-05-16T06:15:38.702Z,-24213.54
2023-05-16T06:18:05.873Z,-24211.47
2023-05-16T06:20:32.928Z,-24209.73
2023-05-16T06:22:59.874Z,-24208.77
2023-05-16T06:25:27.075Z,-24208.03
2023-05-16T06:27:54.291Z,-24207.38
2023-05-16T06:30:21.419Z,-24206.45
2023-05-16T06:32:48.618Z,-24206.20
2023-05-16T06:35:15.747Z,-24205.80
2023-05-16T06:37:43.068Z,-24205.42
2023-05-16T06:40:11.432Z,-24205.20
2023-05-16T06:42:41.740Z,-24204.80
2023-05-16T06:45:09.543Z,-24204.28
2023-05-16T06:47:36.748Z,-24204.15
2023-05-16T06:50:04.984Z,-24204.13
2023-05-16T06:52:32.198Z,-24204.15
2023-05-16T06:54:59.322Z,-24204.46
2023-05-16T06:57:26.350Z,-24204.77
2023-05-16T06:59:53.325Z,-24204.55
2023-05-16T07:02:20.734Z,-24204.09
2023-05-16T07:04:48.342Z,-24203.84
2023-05-16T07:07:15.823Z,-24203.75
2023-05-16T07:09:43.425Z,-24203.47
2023-05-16T07:12:10.484Z,-24203.10
2023-05-16T07:14:37.630Z,-24203.13
2023-05-16T07:17:05.058Z,-24203.84
2023-05-16T07:19:32.223Z,-24204.65
2023-05-16T07:21:59.364Z,-24205.30
2023-05-16T07:24:26.488Z,-24206.29
2023-05-16T07:26:53.533Z,-24207.41
2023-05-16T07:29:20.799Z,-24208.49
2023-05-16T07:31:47.880Z,-24209.39
2023-05-16T07:34:15.061Z,-24210.75
2023-05-16T07:36:42.289Z,-24211.81
2023-05-16T07:39:09.350Z,-24212.68
2023-05-16T07:41:36.354Z,-24213.36
2023-05-16T07:44:03.460Z,-24213.95
2023-05-16T07:46:30.634Z,-24215.00
2023-05-16T07:48:57.852Z,-24216.21
2023-05-16T07:51:24.854Z,-24217.33
2023-05-16T07:53:52.135Z,-24219.32
2023-05-16T07:56:19.235Z,-24221.24
2023-05-16T07:58:46.383Z,-24223.00
2023-05-16T08:01:13.542Z,-24224.77
2023-05-16T08:03:40.627Z,-24226.75
2023-05-16T08:06:07.994Z,-24228.43
2023-05-16T08:08:35.527Z,-24229.04
2023-05-16T08:11:02.627Z,-24229.76
2023-05-16T08:13:29.871Z,-24230.78
2023-05-16T08:15:56.970Z,-24231.40
2023-05-16T08:18:24.336Z,-24231.99
2023-05-16T08:20:51.750Z,-24232.45
2023-05-16T08:23:19.134Z,-24233.04
2023-05-16T08:25:46.767Z,-24233.35
2023-05-16T08:28:14.115Z,-24233.38
2023-05-16T08:30:42.785Z,-24233.07
2023-05-16T08:33:10.752Z,-24232.57
2023-05-16T08:35:38.010Z,-24233.01
2023-05-16T08:38:05.220Z,-24233.29
2023-05-16T08:40:32.550Z,-24232.95
2023-05-16T08:42:59.723Z,-24231.86
2023-05-16T08:45:27.241Z,-24229.36
2023-05-16T08:47:57.767Z,-24224.99
2023-05-16T08:50:25.621Z,-24220.59
2023-05-16T08:52:53.321Z,-24216.18
2023-05-16T08:55:21.786Z,-24212.71
2023-05-16T08:57:51.198Z,-24209.86
2023-05-16T09:00:19.571Z,-24207.37
2023-05-16T09:02:46.809Z,-24204.65
2023-05-16T09:05:15.148Z,-24202.60
2023-05-16T09:07:42.731Z,-24200.77
2023-05-16T09:10:11.091Z,-24200.28
2023-05-16T09:12:39.816Z,-24201.73
2023-05-16T09:15:08.470Z,-24204.31
2023-05-16T09:17:42.346Z,-24207.10
2023-05-16T09:20:13.706Z,-24209.64
2023-05-16T09:22:41.333Z,-24212.58
2023-05-16T09:25:18.361Z,-24215.25
2023-05-16T09:27:56.090Z,-24218.42
2023-05-16T09:30:26.563Z,-24221.27
2023-05-16T09:32:54.018Z,-24224.30
2023-05-16T09:35:35.202Z,-24226.69
2023-05-16T09:38:14.916Z,-24229.23
2023-05-16T09:40:42.638Z,-24233.19
2023-05-16T09:43:10.083Z,-24237.29
2023-05-16T09:45:37.341Z,-24241.56
2023-05-16T09:48:09.237Z,-24245.24
2023-05-16T09:50:37.931Z,-24248.28
2023-05-16T09:53:05.438Z,-24250.54
2023-05-16T09:55:32.869Z,-24251.93
2023-05-16T09:58:00.032Z,-24253.04
2023-05-16T10:00:31.690Z,-24254.44
2023-05-16T10:03:00.940Z,-24255.33
2023-05-16T10:05:31.336Z,-24256.88
2023-05-16T10:07:58.613Z,-24257.66
2023-05-16T10:10:25.961Z,-24257.81
2023-05-16T10:12:53.174Z,-24258.18
2023-05-16T10:15:20.609Z,-24259.51
2023-05-16T10:17:51.941Z,-24261.55
2023-05-16T10:20:19.165Z,-24263.29
2023-05-16T10:22:46.288Z,-24264.24
2023-05-16T10:25:16.283Z,-24264.49
2023-05-16T10:27:43.589Z,-24264.15
2023-05-16T10:30:11.468Z,-24264.40
2023-05-16T10:32:41.236Z,-24265.11
2023-05-16T10:35:10.140Z,-24265.54
2023-05-16T10:37:37.367Z,-24265.54
2023-05-16T10:40:06.545Z,-24265.33
2023-05-16T10:42:34.012Z,-24264.46
2023-05-16T10:45:17.422Z,-24263.35
2023-05-16T10:47:57.407Z,-24261.40
2023-05-16T10:50:41.649Z,-24260.19
2023-05-16T10:53:24.037Z,-24260.50
2023-05-16T10:55:51.765Z,-24261.18
2023-05-16T10:58:40.035Z,-24261.74
2023-05-16T11:01:30.431Z,-24262.11
2023-05-16T11:03:57.927Z,-24262.11
2023-05-16T11:06:29.094Z,-24261.52
2023-05-16T11:09:11.572Z,-24261.80
2023-05-16T11:11:49.374Z,-24262.85
2023-05-16T11:14:26.242Z,-24264.33
2023-05-16T11:17:06.697Z,-24265.39
2023-05-16T11:19:45.417Z,-24266.59
2023-05-16T11:22:32.714Z,-24267.46
2023-05-16T11:25:04.547Z,-24267.55
2023-05-16T11:27:32.261Z,-24267.61
2023-05-16T11:30:06.579Z,-24268.23
2023-05-16T11:32:34.994Z,-24268.82
2023-05-16T11:35:05.443Z,-24269.32
2023-05-16T11:37:32.654Z,-24269.59
2023-05-16T11:40:04.564Z,-24270.12
2023-05-16T11:42:34.560Z,-24271.14
2023-05-16T11:45:09.130Z,-24271.76
2023-05-16T11:47:40.210Z,-24272.35
2023-05-16T11:50:10.202Z,-24273.24
2023-05-16T11:52:37.687Z,-24274.85
2023-05-16T11:55:11.044Z,-24276.18
2023-05-16T11:57:44.021Z,-24277.72
2023-05-16T12:00:16.532Z,-24279.15
2023-05-16T12:02:45.314Z,-24280.85
2023-05-16T12:05:13.038Z,-24281.84
2023-05-16T12:07:41.078Z,-24282.46
2023-05-16T12:10:09.649Z,-24283.08
2023-05-16T12:12:37.347Z,-24283.64
2023-05-16T12:15:06.779Z,-24283.85
2023-05-16T12:17:36.871Z,-24282.92
2023-05-16T12:20:07.968Z,-24282.06
2023-05-16T12:22:35.564Z,-24282.06
2023-05-16T12:25:31.115Z,-24282.18
2023-05-16T12:27:59.825Z,-24282.99
2023-05-16T12:30:28.041Z,-24284.04
2023-05-16T12:33:05.063Z,-24285.06
2023-05-16T12:35:34.646Z,-24286.17
2023-05-16T12:38:06.006Z,-24286.76
2023-05-16T12:40:33.461Z,-24287.10
2023-05-16T12:43:00.880Z,-24287.37
2023-05-16T12:45:28.317Z,-24287.13
2023-05-16T12:47:55.930Z,-24286.97
2023-05-16T12:50:23.291Z,-24286.57
2023-05-16T12:52:55.022Z,-24286.11
2023-05-16T12:55:22.613Z,-24285.83
2023-05-16T12:57:50.244Z,-24284.71
2023-05-16T13:00:19.271Z,-24284.00
2023-05-16T13:02:47.763Z,-24283.67
2023-05-16T13:05:15.360Z,-24284.04
2023-05-16T13:07:42.996Z,-24284.25
2023-05-16T13:10:11.480Z,-24283.66
2023-05-16T13:12:41.610Z,-24282.64
2023-05-16T13:15:09.907Z,-24281.01
2023-05-16T13:17:37.869Z,-24280.07
2023-05-16T13:20:10.615Z,-24279.36
2023-05-16T13:22:37.951Z,-24278.62
2023-05-16T13:25:06.496Z,-24277.42
2023-05-16T13:27:34.352Z,-24276.06
2023-05-16T13:30:01.721Z,-24275.41
2023-05-16T13:32:29.112Z,-24275.44
2023-05-16T13:34:56.972Z,-24275.84
2023-05-16T13:37:27.031Z,-24275.72
2023-05-16T13:39:57.188Z,-24276.21
2023-05-16T13:42:24.516Z,-24276.89
2023-05-16T13:44:51.776Z,-24277.42
2023-05-16T13:47:19.160Z,-24277.91
2023-05-16T13:49:46.373Z,-24278.74
2023-05-16T13:52:13.683Z,-24279.36
2023-05-16T13:54:41.736Z,-24279.70
2023-05-16T13:57:09.045Z,-24280.54
2023-05-16T14:02:06.935Z,-24282.25
2023-05-16T14:04:34.369Z,-24283.23
2023-05-16T14:07:01.817Z,-24284.19
2023-05-16T14:09:29.243Z,-24285.03
2023-05-16T14:11:56.741Z,-24285.89
2023-05-16T14:14:24.078Z,-24287.53
2023-05-16T14:16:51.830Z,-24289.01
2023-05-16T14:19:19.879Z,-24290.62
2023-05-16T14:21:47.260Z,-24291.88
2023-05-16T14:24:14.596Z,-24293.74
2023-05-16T14:26:41.948Z,-24294.70
2023-05-16T14:29:13.155Z,-24295.13
2023-05-16T14:31:41.224Z,-24294.39
2023-05-16T14:34:08.383Z,-24293.71
2023-05-16T14:36:35.757Z,-24293.52
2023-05-16T14:39:03.181Z,-24293.46
2023-05-16T14:41:30.289Z,-24293.37
2023-05-16T14:43:57.431Z,-24293.74
2023-05-16T14:46:24.964Z,-24293.86
2023-05-16T14:48:52.790Z,-24293.28
2023-05-16T14:51:21.430Z,-24293.03
2023-05-16T14:53:48.693Z,-24292.91
2023-05-16T14:56:16.115Z,-24292.38
2023-05-16T14:58:43.538Z,-24292.04
2023-05-16T15:01:11.228Z,-24291.85
2023-05-16T15:03:53.571Z,-24291.61
2023-05-16T15:06:22.525Z,-24290.99
2023-05-16T15:08:49.947Z,-24289.88
2023-05-16T15:11:17.552Z,-24288.98
2023-05-16T15:13:46.637Z,-24287.74
2023-05-16T15:16:14.229Z,-24286.48
2023-05-16T15:18:42.084Z,-24285.92
2023-05-16T15:21:09.524Z,-24285.95
2023-05-16T15:23:36.916Z,-24285.58
2023-05-16T15:26:04.650Z,-24285.36
2023-05-16T15:28:31.871Z,-24284.93
2023-05-16T15:30:59.193Z,-24284.53
2023-05-16T15:33:26.497Z,-24284.25
2023-05-16T15:35:54.122Z,-24283.85
2023-05-16T15:38:21.462Z,-24283.36
2023-05-16T15:40:52.765Z,-24283.20
2023-05-16T15:43:25.388Z,-24283.14
2023-05-16T15:45:52.850Z,-24283.08
2023-05-16T15:48:20.639Z,-24283.36
2023-05-16T15:50:47.916Z,-24283.54
2023-05-16T15:53:15.190Z,-24284.04
2023-05-16T15:55:42.595Z,-24284.93
2023-05-16T15:58:09.887Z,-24285.00
2023-05-16T16:00:37.193Z,-24284.75
2023-05-16T16:03:04.593Z,-24284.13
2023-05-16T16:05:32.050Z,-24283.67
2023-05-16T16:07:59.405Z,-24283.36
2023-05-16T16:10:27.272Z,-24282.98
2023-05-16T16:13:04.170Z,-24282.43
2023-05-16T16:15:33.376Z,-24282.06
2023-05-16T16:18:01.098Z,-24282.03
2023-05-16T16:20:28.679Z,-24281.81
2023-05-16T16:22:55.925Z,-24281.38
2023-05-16T16:25:23.223Z,-24280.88
2023-05-16T16:27:51.524Z,-24280.35
2023-05-16T16:30:18.852Z,-24279.39
2023-05-16T16:32:48.936Z,-24278.84
2023-05-16T16:35:16.595Z,-24278.13
2023-05-16T16:37:54.596Z,-24277.63
2023-05-16T16:40:31.122Z,-24277.05
2023-05-16T16:42:58.973Z,-24276.80
2023-05-16T16:45:27.397Z,-24276.58
2023-05-16T16:47:55.105Z,-24276.24
2023-05-16T16:50:22.285Z,-24276.21
2023-05-16T16:52:49.535Z,-24276.05
2023-05-16T16:55:16.934Z,-24275.65
2023-05-16T16:57:44.119Z,-24275.07
2023-05-16T17:00:11.942Z,-24274.91
2023-05-16T17:02:39.490Z,-24274.51
2023-05-16T17:05:07.048Z,-24273.95
2023-05-16T17:07:34.291Z,-24273.43
2023-05-16T17:10:04.067Z,-24272.93
2023-05-16T17:12:34.616Z,-24272.56
2023-05-16T17:15:02.323Z,-24272.04
2023-05-16T17:17:29.731Z,-24271.70
2023-05-16T17:19:57.048Z,-24271.42
2023-05-16T17:22:24.208Z,-24271.08
2023-05-16T17:24:51.540Z,-24270.65
2023-05-16T17:27:18.720Z,-24270.15
2023-05-16T17:29:47.436Z,-24269.59
2023-05-16T17:32:14.676Z,-24268.85
2023-05-16T17:34:41.950Z,-24268.42
2023-05-16T17:37:10.813Z,-24268.20
2023-05-16T17:39:38.998Z,-24267.83
2023-05-16T17:42:06.368Z,-24267.58
2023-05-16T17:44:33.624Z,-24267.06
2023-05-16T17:47:00.772Z,-24266.41
2023-05-16T17:49:27.981Z,-24265.79
2023-05-16T17:51:56.635Z,-24265.51
2023-05-16T17:54:24.327Z,-24265.08
2023-05-16T17:56:51.452Z,-24264.80
2023-05-16T17:59:19.485Z,-24264.40
2023-05-16T18:01:47.696Z,-24264.43
2023-05-16T18:04:15.049Z,-24264.33
2023-05-16T18:06:42.584Z,-24264.25
2023-05-16T18:09:10.560Z,-24264.46
2023-05-16T18:11:39.257Z,-24264.21
2023-05-16T18:14:08.976Z,-24263.84
2023-05-16T18:16:36.279Z,-24263.25
2023-05-16T18:19:05.119Z,-24262.60
2023-05-16T18:21:32.542Z,-24262.11
2023-05-16T18:24:00.094Z,-24261.74
2023-05-16T18:26:30.804Z,-24261.24
2023-05-16T18:28:59.374Z,-24260.53
2023-05-16T18:31:26.676Z,-24260.04
2023-05-16T18:33:53.820Z,-24259.70
2023-05-16T18:36:21.120Z,-24259.57
2023-05-16T18:38:48.304Z,-24259.26
2023-05-16T18:41:16.805Z,-24259.05
2023-05-16T18:43:44.159Z,-24258.52
2023-05-16T18:46:11.882Z,-24257.68
2023-05-16T18:48:39.316Z,-24256.69
2023-05-16T18:51:06.785Z,-24255.98
2023-05-16T18:53:34.152Z,-24255.18
2023-05-16T18:56:01.748Z,-24254.22
2023-05-16T18:58:28.889Z,-24253.42
2023-05-16T19:00:56.498Z,-24252.74
2023-05-16T19:03:23.928Z,-24252.15
2023-05-16T19:05:51.435Z,-24251.80
2023-05-16T19:08:18.895Z,-24251.16
2023-05-16T19:10:47.858Z,-24250.63
2023-05-16T19:13:15.153Z,-24250.48
2023-05-16T19:15:44.828Z,-24249.98
2023-05-16T19:18:13.198Z,-24249.20
2023-05-16T19:20:40.955Z,-24248.43
2023-05-16T19:23:08.630Z,-24248.00
2023-05-16T19:25:35.764Z,-24247.66
2023-05-16T19:28:03.657Z,-24246.97
2023-05-16T19:30:30.984Z,-24246.26
2023-05-16T19:32:58.240Z,-24245.45
2023-05-16T19:35:25.620Z,-24244.56
2023-05-16T19:37:53.283Z,-24243.63
2023-05-16T19:40:20.497Z,-24242.67
2023-05-16T19:42:47.870Z,-24242.12
2023-05-16T19:45:16.569Z,-24241.18
2023-05-16T19:47:44.006Z,-24240.47
2023-05-16T19:50:11.223Z,-24240.19
2023-05-16T19:52:38.597Z,-24239.70
2023-05-16T19:55:07.900Z,-24238.74
2023-05-16T19:57:35.127Z,-24237.75
2023-05-16T20:00:02.833Z,-24237.00
2023-05-16T20:02:39.770Z,-24236.20
2023-05-16T20:05:07.590Z,-24235.80
2023-05-16T20:07:34.953Z,-24235.30
2023-05-16T20:10:04.161Z,-24234.96
2023-05-16T20:12:31.640Z,-24234.56
2023-05-16T20:14:58.889Z,-24234.06
2023-05-16T20:17:28.806Z,-24233.38
2023-05-16T20:19:56.211Z,-24232.79
2023-05-16T20:22:23.311Z,-24232.14
2023-05-16T20:24:50.463Z,-24231.43
2023-05-16T20:27:17.704Z,-24230.96
2023-05-16T20:29:44.893Z,-24230.16
2023-05-16T20:32:12.210Z,-24229.76
2023-05-16T20:34:41.536Z,-24229.11
2023-05-16T20:37:09.082Z,-24228.55
2023-05-16T20:39:36.442Z,-24227.65
2023-05-16T20:42:04.299Z,-24227.06
2023-05-16T20:44:33.786Z,-24226.66
2023-05-16T20:47:00.902Z,-24226.26
2023-05-16T20:49:28.023Z,-24225.57
2023-05-16T20:51:55.087Z,-24224.90
2023-05-16T20:54:22.297Z,-24224.49
2023-05-16T20:56:49.466Z,-24223.78
2023-05-16T20:59:16.634Z,-24223.22
2023-05-16T21:01:43.891Z,-24222.57
2023-05-16T21:04:11.247Z,-24221.95
2023-05-16T21:06:38.355Z,-24220.99
2023-05-16T21:09:05.995Z,-24220.21
2023-05-16T21:11:34.130Z,-24219.44
2023-05-16T21:14:01.400Z,-24218.91
2023-05-16T21:16:30.213Z,-24218.57
2023-05-16T21:18:57.638Z,-24217.73
2023-05-16T21:21:24.901Z,-24217.05
2023-05-16T21:23:52.392Z,-24216.52
2023-05-16T21:26:19.742Z,-24216.08
2023-05-16T21:31:18.340Z,-24215.38
2023-05-16T21:33:45.724Z,-24215.19
2023-05-16T21:36:12.999Z,-24214.60
2023-05-16T21:38:40.301Z,-24214.13
2023-05-16T21:41:07.414Z,-24213.58
2023-05-16T21:43:34.488Z,-24212.86
2023-05-16T21:46:01.539Z,-24212.49
2023-05-16T21:48:28.640Z,-24212.34
2023-05-16T21:50:55.830Z,-24211.96
2023-05-16T21:53:25.206Z,-24211.34
2023-05-16T21:55:52.348Z,-24210.94
2023-05-16T21:58:19.429Z,-24210.69
2023-05-16T22:00:46.487Z,-24210.04
2023-05-16T22:03:13.653Z,-24209.33
2023-05-16T22:05:40.627Z,-24208.83
2023-05-16T22:08:08.203Z,-24208.28
2023-05-16T22:10:35.263Z,-24207.84
2023-05-16T22:13:02.285Z,-24207.65
2023-05-16T22:15:29.605Z,-24207.32
2023-05-16T22:17:57.762Z,-24206.94
2023-05-16T22:20:26.680Z,-24206.26
2023-05-16T22:22:53.839Z,-24205.30
2023-05-16T22:25:20.975Z,-24204.43
2023-05-16T22:27:47.950Z,-24203.81
2023-05-16T22:30:15.059Z,-24203.22
2023-05-16T22:32:42.381Z,-24202.79
2023-05-16T22:35:09.652Z,-24202.14
2023-05-16T22:37:36.631Z,-24201.42
2023-05-16T22:40:04.049Z,-24201.05
2023-05-16T22:42:31.618Z,-24200.43
2023-05-16T22:44:58.666Z,-24199.69
2023-05-16T22:47:25.927Z,-24199.31
2023-05-16T22:49:53.191Z,-24198.97
2023-05-16T22:52:22.141Z,-24198.69
2023-05-16T22:54:49.172Z,-24198.20
2023-05-16T22:57:16.311Z,-24197.95
2023-05-16T22:59:43.296Z,-24197.61
2023-05-16T23:02:10.463Z,-24197.23
2023-05-16T23:04:37.510Z,-24196.83
2023-05-16T23:07:04.713Z,-24196.74
2023-05-16T23:09:31.776Z,-24196.80
2023-05-16T23:11:59.322Z,-24196.89
2023-05-16T23:14:26.513Z,-24196.93
2023-05-16T23:16:53.537Z,-24197.27
2023-05-16T23:19:20.673Z,-24197.58
2023-05-16T23:21:47.796Z,-24197.79
2023-05-16T23:24:14.873Z,-24198.20
2023-05-16T23:26:41.801Z,-24198.60
2023-05-16T23:29:08.737Z,-24198.76
2023-05-16T23:31:35.761Z,-24199.00
2023-05-16T23:34:02.854Z,-24199.31
2023-05-16T23:36:29.900Z,-24199.59
2023-05-16T23:38:56.967Z,-24200.09
2023-05-16T23:41:23.979Z,-24200.49
2023-05-16T23:43:51.122Z,-24201.11
2023-05-16T23:46:18.190Z,-24201.18
2023-05-16T23:48:46.076Z,-24201.67
2023-05-16T23:51:13.312Z,-24202.07
2023-05-16T23:53:40.419Z,-24202.72
2023-05-16T23:56:07.863Z,-24203.41
2023-05-16T23:58:34.963Z,-24203.75
